Pagrindinis puslapis
METAR-TAF:

METAR-TAF

Oro uostai :

Džajapura, Indonezija

platuma: 02-34-37S, ilguma: 140-30-58E, Aukštis: 88 m

Dabartinis oras

Ataskaita buvo paskelbta 1 valandą ir 0 minutes, ne 04:00 UTC
Vėjas 4 kt iš Rytų/Pietryčių
Temperatūra 24°C
Drėgmė 89%
Slėgis 1011 hPa
Matomumas: 7000 m
Mažai debesys ne aukštis 1200 ft, Liūtiniai kamuoliniai debesys.
Išsisklaidę debesys ne aukštis 1300 ft
perkūnija, lietus

METAR: WAJJ 210400Z 11004KT 7000 -TSRA FEW012CB SCT013 24/22 Q1011 BECMG NSW

Laikas: 12:00 (05:00 UTC)


TAF: trūkstamas

Orai ataskaitas ir orų prognozės (METAR, TAF).

turimą stotys yra geltonos ir raudonos taškus žemėlapyje.

Perkelti pele per norėdami pamatyti stoties vardą.

Tada spustelėkite, norėdami matyti oro stebėjimo ir prognozės.

Norėdami pakeisti žemėlapį: spustelėkite ant žalios mygtukų su juodo kryžiaus žemyn,; žalią mygtuką su brūkšneliu, jei norite nutolinti; arba žalių rodyklių gretimoms žemėlapius.


METAR-TAF: